sensor_id;sensor_type;location;lat;lon;timestamp;P1;durP1;ratioP1;P2;durP2;ratioP2
21761;SDS011;11203;50.870;20.682;2023-03-17T00:01:06;252.60;;;117.90;;
21761;SDS011;11203;50.870;20.682;2023-03-17T00:03:38;264.35;;;121.30;;
21761;SDS011;11203;50.870;20.682;2023-03-17T00:06:11;244.27;;;107.47;;
21761;SDS011;11203;50.870;20.682;2023-03-17T00:08:42;250.52;;;110.45;;
21761;SDS011;11203;50.870;20.682;2023-03-17T00:11:11;214.57;;;98.53;;
21761;SDS011;11203;50.870;20.682;2023-03-17T00:13:40;249.60;;;113.50;;
21761;SDS011;11203;50.870;20.682;2023-03-17T00:16:15;254.98;;;119.72;;
21761;SDS011;11203;50.870;20.682;2023-03-17T00:18:44;247.95;;;119.07;;
21761;SDS011;11203;50.870;20.682;2023-03-17T00:21:15;261.85;;;118.80;;
21761;SDS011;11203;50.870;20.682;2023-03-17T00:23:51;255.52;;;119.15;;
21761;SDS011;11203;50.870;20.682;2023-03-17T00:26:17;249.27;;;120.72;;
21761;SDS011;11203;50.870;20.682;2023-03-17T00:28:44;276.95;;;121.75;;
21761;SDS011;11203;50.870;20.682;2023-03-17T00:31:15;253.63;;;118.75;;
21761;SDS011;11203;50.870;20.682;2023-03-17T00:33:49;271.65;;;123.78;;
21761;SDS011;11203;50.870;20.682;2023-03-17T00:36:22;266.75;;;123.03;;
21761;SDS011;11203;50.870;20.682;2023-03-17T00:38:52;259.40;;;124.32;;
21761;SDS011;11203;50.870;20.682;2023-03-17T00:41:19;233.77;;;115.20;;
21761;SDS011;11203;50.870;20.682;2023-03-17T00:43:46;241.50;;;114.30;;
21761;SDS011;11203;50.870;20.682;2023-03-17T00:46:30;233.52;;;109.80;;
21761;SDS011;11203;50.870;20.682;2023-03-17T00:49:09;236.48;;;112.55;;
21761;SDS011;11203;50.870;20.682;2023-03-17T00:51:40;231.13;;;109.65;;
21761;SDS011;11203;50.870;20.682;2023-03-17T00:54:08;233.85;;;110.82;;
21761;SDS011;11203;50.870;20.682;2023-03-17T00:56:36;194.38;;;97.72;;
21761;SDS011;11203;50.870;20.682;2023-03-17T00:59:03;213.68;;;102.57;;
21761;SDS011;11203;50.870;20.682;2023-03-17T01:01:30;213.75;;;99.22;;
21761;SDS011;11203;50.870;20.682;2023-03-17T01:03:56;218.75;;;103.50;;
21761;SDS011;11203;50.870;20.682;2023-03-17T01:06:22;218.48;;;102.50;;
21761;SDS011;11203;50.870;20.682;2023-03-17T01:08:48;210.93;;;100.78;;
21761;SDS011;11203;50.870;20.682;2023-03-17T01:11:16;211.95;;;100.55;;
21761;SDS011;11203;50.870;20.682;2023-03-17T01:13:44;206.15;;;95.70;;
21761;SDS011;11203;50.870;20.682;2023-03-17T01:16:11;233.27;;;102.65;;
21761;SDS011;11203;50.870;20.682;2023-03-17T01:18:37;221.57;;;104.00;;
21761;SDS011;11203;50.870;20.682;2023-03-17T01:21:04;236.93;;;108.47;;
21761;SDS011;11203;50.870;20.682;2023-03-17T01:23:31;228.65;;;108.65;;
21761;SDS011;11203;50.870;20.682;2023-03-17T01:25:57;236.68;;;108.00;;
21761;SDS011;11203;50.870;20.682;2023-03-17T01:28:23;211.25;;;104.20;;
21761;SDS011;11203;50.870;20.682;2023-03-17T01:30:49;223.65;;;105.80;;
21761;SDS011;11203;50.870;20.682;2023-03-17T01:33:16;232.43;;;107.90;;
21761;SDS011;11203;50.870;20.682;2023-03-17T01:35:42;219.93;;;103.65;;
21761;SDS011;11203;50.870;20.682;2023-03-17T01:38:10;225.95;;;107.25;;
21761;SDS011;11203;50.870;20.682;2023-03-17T01:40:41;222.98;;;109.47;;
21761;SDS011;11203;50.870;20.682;2023-03-17T01:43:31;233.32;;;109.82;;
21761;SDS011;11203;50.870;20.682;2023-03-17T01:49:07;210.75;;;103.68;;
21761;SDS011;11203;50.870;20.682;2023-03-17T01:54:33;219.52;;;108.60;;
21761;SDS011;11203;50.870;20.682;2023-03-17T01:57:08;219.05;;;108.10;;
21761;SDS011;11203;50.870;20.682;2023-03-17T01:59:43;210.38;;;101.68;;
21761;SDS011;11203;50.870;20.682;2023-03-17T02:02:19;208.18;;;99.25;;
21761;SDS011;11203;50.870;20.682;2023-03-17T02:04:53;210.07;;;100.80;;
21761;SDS011;11203;50.870;20.682;2023-03-17T02:07:21;194.80;;;98.60;;
21761;SDS011;11203;50.870;20.682;2023-03-17T02:09:48;202.57;;;102.43;;
21761;SDS011;11203;50.870;20.682;2023-03-17T02:12:16;209.82;;;107.40;;
21761;SDS011;11203;50.870;20.682;2023-03-17T02:14:42;212.95;;;101.38;;
21761;SDS011;11203;50.870;20.682;2023-03-17T02:17:09;210.63;;;96.97;;
21761;SDS011;11203;50.870;20.682;2023-03-17T02:19:35;195.02;;;91.85;;
21761;SDS011;11203;50.870;20.682;2023-03-17T02:22:01;189.75;;;89.03;;
21761;SDS011;11203;50.870;20.682;2023-03-17T02:24:38;198.55;;;94.15;;
21761;SDS011;11203;50.870;20.682;2023-03-17T02:27:13;200.10;;;93.90;;
21761;SDS011;11203;50.870;20.682;2023-03-17T02:29:44;195.27;;;92.95;;
21761;SDS011;11203;50.870;20.682;2023-03-17T02:32:14;197.82;;;93.65;;
21761;SDS011;11203;50.870;20.682;2023-03-17T02:34:45;199.73;;;99.10;;
21761;SDS011;11203;50.870;20.682;2023-03-17T02:37:13;209.18;;;97.72;;
21761;SDS011;11203;50.870;20.682;2023-03-17T02:39:41;205.63;;;92.82;;
21761;SDS011;11203;50.870;20.682;2023-03-17T02:42:07;204.32;;;89.00;;
21761;SDS011;11203;50.870;20.682;2023-03-17T02:44:34;217.93;;;98.50;;
21761;SDS011;11203;50.870;20.682;2023-03-17T02:47:01;183.70;;;88.13;;
21761;SDS011;11203;50.870;20.682;2023-03-17T02:49:27;198.55;;;92.50;;
21761;SDS011;11203;50.870;20.682;2023-03-17T02:51:55;204.90;;;94.97;;
21761;SDS011;11203;50.870;20.682;2023-03-17T02:54:21;202.70;;;94.13;;
21761;SDS011;11203;50.870;20.682;2023-03-17T02:56:48;205.40;;;96.95;;
21761;SDS011;11203;50.870;20.682;2023-03-17T02:59:14;214.05;;;99.20;;
21761;SDS011;11203;50.870;20.682;2023-03-17T03:01:40;213.57;;;102.10;;
21761;SDS011;11203;50.870;20.682;2023-03-17T03:04:06;207.95;;;96.93;;
21761;SDS011;11203;50.870;20.682;2023-03-17T03:06:33;210.52;;;106.30;;
21761;SDS011;11203;50.870;20.682;2023-03-17T03:09:00;193.82;;;93.45;;
21761;SDS011;11203;50.870;20.682;2023-03-17T03:11:28;182.45;;;87.85;;
21761;SDS011;11203;50.870;20.682;2023-03-17T03:13:54;266.73;;;127.80;;
21761;SDS011;11203;50.870;20.682;2023-03-17T03:16:20;277.52;;;134.20;;
21761;SDS011;11203;50.870;20.682;2023-03-17T03:18:47;246.18;;;120.00;;
21761;SDS011;11203;50.870;20.682;2023-03-17T03:21:13;190.77;;;94.65;;
21761;SDS011;11203;50.870;20.682;2023-03-17T03:23:39;145.40;;;72.82;;
21761;SDS011;11203;50.870;20.682;2023-03-17T03:26:05;136.15;;;66.65;;
21761;SDS011;11203;50.870;20.682;2023-03-17T03:28:32;157.45;;;77.55;;
21761;SDS011;11203;50.870;20.682;2023-03-17T03:30:58;150.20;;;72.10;;
21761;SDS011;11203;50.870;20.682;2023-03-17T03:33:24;173.02;;;83.82;;
21761;SDS011;11203;50.870;20.682;2023-03-17T03:35:50;187.65;;;95.03;;
21761;SDS011;11203;50.870;20.682;2023-03-17T03:38:16;181.55;;;91.43;;
21761;SDS011;11203;50.870;20.682;2023-03-17T03:40:43;175.10;;;88.80;;
21761;SDS011;11203;50.870;20.682;2023-03-17T03:43:09;193.25;;;89.20;;
21761;SDS011;11203;50.870;20.682;2023-03-17T03:45:36;132.80;;;67.05;;
21761;SDS011;11203;50.870;20.682;2023-03-17T03:48:02;165.50;;;81.43;;
21761;SDS011;11203;50.870;20.682;2023-03-17T03:50:28;198.70;;;90.72;;
21761;SDS011;11203;50.870;20.682;2023-03-17T03:52:55;188.77;;;94.50;;
21761;SDS011;11203;50.870;20.682;2023-03-17T03:55:22;197.43;;;96.25;;
21761;SDS011;11203;50.870;20.682;2023-03-17T03:57:47;173.18;;;93.22;;
21761;SDS011;11203;50.870;20.682;2023-03-17T04:00:14;143.70;;;79.07;;
21761;SDS011;11203;50.870;20.682;2023-03-17T04:02:41;142.38;;;80.80;;
21761;SDS011;11203;50.870;20.682;2023-03-17T04:05:15;136.75;;;75.68;;
21761;SDS011;11203;50.870;20.682;2023-03-17T04:07:45;158.98;;;91.20;;
21761;SDS011;11203;50.870;20.682;2023-03-17T04:10:12;148.32;;;79.47;;
21761;SDS011;11203;50.870;20.682;2023-03-17T04:12:40;163.20;;;82.05;;
21761;SDS011;11203;50.870;20.682;2023-03-17T04:15:07;157.73;;;75.90;;
21761;SDS011;11203;50.870;20.682;2023-03-17T04:17:35;171.55;;;86.43;;
21761;SDS011;11203;50.870;20.682;2023-03-17T04:20:02;157.43;;;80.50;;
21761;SDS011;11203;50.870;20.682;2023-03-17T04:22:29;127.05;;;72.35;;
21761;SDS011;11203;50.870;20.682;2023-03-17T04:24:55;135.32;;;69.65;;
21761;SDS011;11203;50.870;20.682;2023-03-17T04:27:21;127.90;;;72.00;;
21761;SDS011;11203;50.870;20.682;2023-03-17T04:29:47;106.57;;;58.58;;
21761;SDS011;11203;50.870;20.682;2023-03-17T04:32:13;91.95;;;53.13;;
21761;SDS011;11203;50.870;20.682;2023-03-17T04:34:43;152.05;;;85.93;;
21761;SDS011;11203;50.870;20.682;2023-03-17T04:37:09;115.10;;;62.35;;
21761;SDS011;11203;50.870;20.682;2023-03-17T04:39:36;94.90;;;54.35;;
21761;SDS011;11203;50.870;20.682;2023-03-17T04:42:03;109.97;;;56.17;;
21761;SDS011;11203;50.870;20.682;2023-03-17T04:44:31;105.32;;;56.83;;
21761;SDS011;11203;50.870;20.682;2023-03-17T04:46:57;132.13;;;65.72;;
21761;SDS011;11203;50.870;20.682;2023-03-17T04:49:23;111.78;;;57.00;;
21761;SDS011;11203;50.870;20.682;2023-03-17T04:51:50;122.15;;;62.22;;
21761;SDS011;11203;50.870;20.682;2023-03-17T04:54:16;352.98;;;152.43;;
21761;SDS011;11203;50.870;20.682;2023-03-17T04:56:42;148.55;;;77.20;;
21761;SDS011;11203;50.870;20.682;2023-03-17T04:59:08;97.00;;;55.10;;
21761;SDS011;11203;50.870;20.682;2023-03-17T05:01:35;98.60;;;56.75;;
21761;SDS011;11203;50.870;20.682;2023-03-17T05:04:01;125.95;;;80.05;;
21761;SDS011;11203;50.870;20.682;2023-03-17T05:06:28;117.43;;;72.00;;
21761;SDS011;11203;50.870;20.682;2023-03-17T05:08:54;122.90;;;71.78;;
21761;SDS011;11203;50.870;20.682;2023-03-17T05:11:20;112.60;;;74.07;;
21761;SDS011;11203;50.870;20.682;2023-03-17T05:13:47;109.55;;;66.30;;
21761;SDS011;11203;50.870;20.682;2023-03-17T05:16:13;75.05;;;47.00;;
21761;SDS011;11203;50.870;20.682;2023-03-17T05:18:39;69.70;;;41.88;;
21761;SDS011;11203;50.870;20.682;2023-03-17T05:21:07;94.68;;;54.78;;
21761;SDS011;11203;50.870;20.682;2023-03-17T05:23:35;82.43;;;47.58;;
21761;SDS011;11203;50.870;20.682;2023-03-17T05:26:01;86.45;;;46.75;;
21761;SDS011;11203;50.870;20.682;2023-03-17T05:28:27;92.10;;;51.80;;
21761;SDS011;11203;50.870;20.682;2023-03-17T05:30:53;84.18;;;48.03;;
21761;SDS011;11203;50.870;20.682;2023-03-17T05:33:20;70.85;;;39.78;;
21761;SDS011;11203;50.870;20.682;2023-03-17T05:35:47;69.10;;;41.38;;
21761;SDS011;11203;50.870;20.682;2023-03-17T05:38:13;79.47;;;51.80;;
21761;SDS011;11203;50.870;20.682;2023-03-17T05:40:40;82.55;;;54.10;;
21761;SDS011;11203;50.870;20.682;2023-03-17T05:43:07;88.22;;;55.15;;
21761;SDS011;11203;50.870;20.682;2023-03-17T05:45:33;76.95;;;48.33;;
21761;SDS011;11203;50.870;20.682;2023-03-17T05:48:02;64.15;;;40.03;;
21761;SDS011;11203;50.870;20.682;2023-03-17T05:50:29;67.85;;;42.38;;
21761;SDS011;11203;50.870;20.682;2023-03-17T05:52:56;65.82;;;41.55;;
21761;SDS011;11203;50.870;20.682;2023-03-17T05:55:23;72.43;;;44.00;;
21761;SDS011;11203;50.870;20.682;2023-03-17T05:57:49;69.05;;;38.20;;
21761;SDS011;11203;50.870;20.682;2023-03-17T06:00:15;61.38;;;35.78;;
21761;SDS011;11203;50.870;20.682;2023-03-17T06:02:43;65.55;;;38.65;;
21761;SDS011;11203;50.870;20.682;2023-03-17T06:05:10;70.63;;;42.15;;
21761;SDS011;11203;50.870;20.682;2023-03-17T06:07:36;58.25;;;36.05;;
21761;SDS011;11203;50.870;20.682;2023-03-17T06:10:03;65.90;;;39.47;;
21761;SDS011;11203;50.870;20.682;2023-03-17T06:12:31;54.33;;;33.75;;
21761;SDS011;11203;50.870;20.682;2023-03-17T06:14:57;54.85;;;29.42;;
21761;SDS011;11203;50.870;20.682;2023-03-17T06:17:23;48.67;;;29.02;;
21761;SDS011;11203;50.870;20.682;2023-03-17T06:19:49;46.03;;;25.50;;
21761;SDS011;11203;50.870;20.682;2023-03-17T06:22:15;43.85;;;26.23;;
21761;SDS011;11203;50.870;20.682;2023-03-17T06:24:42;40.17;;;24.58;;
21761;SDS011;11203;50.870;20.682;2023-03-17T06:27:08;39.75;;;24.90;;
21761;SDS011;11203;50.870;20.682;2023-03-17T06:29:35;41.70;;;24.92;;
21761;SDS011;11203;50.870;20.682;2023-03-17T06:32:02;39.50;;;24.80;;
21761;SDS011;11203;50.870;20.682;2023-03-17T06:34:29;45.65;;;26.95;;
21761;SDS011;11203;50.870;20.682;2023-03-17T06:36:56;42.35;;;25.75;;
21761;SDS011;11203;50.870;20.682;2023-03-17T06:39:22;41.83;;;24.00;;
21761;SDS011;11203;50.870;20.682;2023-03-17T06:41:49;44.08;;;23.25;;
21761;SDS011;11203;50.870;20.682;2023-03-17T06:44:15;44.30;;;25.98;;
21761;SDS011;11203;50.870;20.682;2023-03-17T06:46:42;42.88;;;23.42;;
21761;SDS011;11203;50.870;20.682;2023-03-17T06:49:08;38.08;;;22.40;;
21761;SDS011;11203;50.870;20.682;2023-03-17T06:51:38;46.92;;;23.50;;
21761;SDS011;11203;50.870;20.682;2023-03-17T06:54:07;36.70;;;22.02;;
21761;SDS011;11203;50.870;20.682;2023-03-17T06:56:33;40.25;;;23.33;;
21761;SDS011;11203;50.870;20.682;2023-03-17T06:59:00;34.90;;;19.48;;
21761;SDS011;11203;50.870;20.682;2023-03-17T07:01:26;44.08;;;21.40;;
21761;SDS011;11203;50.870;20.682;2023-03-17T07:03:52;31.08;;;19.35;;
21761;SDS011;11203;50.870;20.682;2023-03-17T07:06:19;93.70;;;51.45;;
21761;SDS011;11203;50.870;20.682;2023-03-17T07:08:47;35.03;;;19.63;;
21761;SDS011;11203;50.870;20.682;2023-03-17T07:11:15;36.70;;;22.75;;
21761;SDS011;11203;50.870;20.682;2023-03-17T07:13:41;37.28;;;18.70;;
21761;SDS011;11203;50.870;20.682;2023-03-17T07:16:08;32.92;;;17.98;;
21761;SDS011;11203;50.870;20.682;2023-03-17T07:18:36;31.85;;;18.55;;
21761;SDS011;11203;50.870;20.682;2023-03-17T07:21:03;42.17;;;19.27;;
21761;SDS011;11203;50.870;20.682;2023-03-17T07:23:31;30.48;;;17.40;;
21761;SDS011;11203;50.870;20.682;2023-03-17T07:25:58;38.30;;;18.35;;
21761;SDS011;11203;50.870;20.682;2023-03-17T07:28:24;35.53;;;17.33;;
21761;SDS011;11203;50.870;20.682;2023-03-17T07:30:50;33.80;;;20.50;;
21761;SDS011;11203;50.870;20.682;2023-03-17T07:33:16;37.08;;;17.60;;
21761;SDS011;11203;50.870;20.682;2023-03-17T07:35:47;30.77;;;16.60;;
21761;SDS011;11203;50.870;20.682;2023-03-17T07:38:14;38.22;;;18.23;;
21761;SDS011;11203;50.870;20.682;2023-03-17T07:40:45;32.08;;;15.75;;
21761;SDS011;11203;50.870;20.682;2023-03-17T07:43:13;27.75;;;14.85;;
21761;SDS011;11203;50.870;20.682;2023-03-17T07:45:42;23.38;;;13.95;;
21761;SDS011;11203;50.870;20.682;2023-03-17T07:48:08;23.63;;;12.77;;
21761;SDS011;11203;50.870;20.682;2023-03-17T07:50:35;38.35;;;17.80;;
21761;SDS011;11203;50.870;20.682;2023-03-17T07:53:02;33.50;;;16.45;;
21761;SDS011;11203;50.870;20.682;2023-03-17T07:55:30;25.27;;;11.90;;
21761;SDS011;11203;50.870;20.682;2023-03-17T07:57:56;21.23;;;11.90;;
21761;SDS011;11203;50.870;20.682;2023-03-17T08:00:23;20.30;;;11.95;;
21761;SDS011;11203;50.870;20.682;2023-03-17T08:02:51;23.65;;;13.25;;
21761;SDS011;11203;50.870;20.682;2023-03-17T08:05:17;622.83;;;331.17;;
21761;SDS011;11203;50.870;20.682;2023-03-17T08:07:43;35.13;;;20.80;;
21761;SDS011;11203;50.870;20.682;2023-03-17T08:10:09;30.60;;;17.77;;
21761;SDS011;11203;50.870;20.682;2023-03-17T08:12:39;20.33;;;14.05;;
21761;SDS011;11203;50.870;20.682;2023-03-17T08:15:07;23.02;;;12.18;;
21761;SDS011;11203;50.870;20.682;2023-03-17T08:17:34;17.92;;;10.00;;
21761;SDS011;11203;50.870;20.682;2023-03-17T08:20:01;20.70;;;9.73;;
21761;SDS011;11203;50.870;20.682;2023-03-17T08:22:29;16.77;;;8.98;;
21761;SDS011;11203;50.870;20.682;2023-03-17T08:24:56;16.77;;;8.73;;
21761;SDS011;11203;50.870;20.682;2023-03-17T08:27:22;19.08;;;9.95;;
21761;SDS011;11203;50.870;20.682;2023-03-17T08:29:49;18.70;;;9.02;;
21761;SDS011;11203;50.870;20.682;2023-03-17T08:32:15;18.70;;;9.35;;
21761;SDS011;11203;50.870;20.682;2023-03-17T08:34:42;19.52;;;9.85;;
21761;SDS011;11203;50.870;20.682;2023-03-17T08:37:10;20.52;;;10.30;;
21761;SDS011;11203;50.870;20.682;2023-03-17T08:39:36;21.98;;;11.05;;
21761;SDS011;11203;50.870;20.682;2023-03-17T08:42:03;21.15;;;11.40;;
21761;SDS011;11203;50.870;20.682;2023-03-17T08:44:30;13.93;;;8.65;;
21761;SDS011;11203;50.870;20.682;2023-03-17T08:46:56;15.48;;;8.05;;
21761;SDS011;11203;50.870;20.682;2023-03-17T08:49:22;20.05;;;8.82;;
21761;SDS011;11203;50.870;20.682;2023-03-17T08:51:48;24.38;;;20.15;;
21761;SDS011;11203;50.870;20.682;2023-03-17T08:54:15;13.20;;;7.03;;
21761;SDS011;11203;50.870;20.682;2023-03-17T08:56:41;19.85;;;12.63;;
21761;SDS011;11203;50.870;20.682;2023-03-17T08:59:08;16.42;;;8.43;;
21761;SDS011;11203;50.870;20.682;2023-03-17T09:01:34;21.27;;;8.48;;
21761;SDS011;11203;50.870;20.682;2023-03-17T09:04:01;17.05;;;11.10;;
21761;SDS011;11203;50.870;20.682;2023-03-17T09:06:28;14.23;;;7.40;;
21761;SDS011;11203;50.870;20.682;2023-03-17T09:08:54;16.58;;;7.80;;
21761;SDS011;11203;50.870;20.682;2023-03-17T09:11:24;15.32;;;7.05;;
21761;SDS011;11203;50.870;20.682;2023-03-17T09:13:53;10.57;;;6.15;;
21761;SDS011;11203;50.870;20.682;2023-03-17T09:16:20;9.88;;;5.53;;
21761;SDS011;11203;50.870;20.682;2023-03-17T09:18:48;12.40;;;5.97;;
21761;SDS011;11203;50.870;20.682;2023-03-17T09:21:14;20.17;;;14.15;;
21761;SDS011;11203;50.870;20.682;2023-03-17T09:23:41;10.85;;;6.32;;
21761;SDS011;11203;50.870;20.682;2023-03-17T09:26:08;20.55;;;10.90;;
21761;SDS011;11203;50.870;20.682;2023-03-17T09:28:36;10.85;;;5.95;;
21761;SDS011;11203;50.870;20.682;2023-03-17T09:31:03;11.68;;;6.13;;
21761;SDS011;11203;50.870;20.682;2023-03-17T09:33:36;12.98;;;9.10;;
21761;SDS011;11203;50.870;20.682;2023-03-17T09:36:06;13.02;;;7.40;;
21761;SDS011;11203;50.870;20.682;2023-03-17T09:38:34;11.50;;;6.10;;
21761;SDS011;11203;50.870;20.682;2023-03-17T09:50:17;12.38;;;6.55;;
21761;SDS011;11203;50.870;20.682;2023-03-17T09:52:49;13.90;;;9.35;;
21761;SDS011;11203;50.870;20.682;2023-03-17T09:55:27;19.73;;;16.15;;
21761;SDS011;11203;50.870;20.682;2023-03-17T09:57:56;25.70;;;21.00;;
21761;SDS011;11203;50.870;20.682;2023-03-17T10:00:26;38.70;;;33.85;;
21761;SDS011;11203;50.870;20.682;2023-03-17T10:02:55;34.22;;;19.02;;
21761;SDS011;11203;50.870;20.682;2023-03-17T10:05:27;29.52;;;26.48;;
21761;SDS011;11203;50.870;20.682;2023-03-17T10:17:10;14.50;;;7.72;;
21761;SDS011;11203;50.870;20.682;2023-03-17T10:22:41;13.57;;;11.02;;
21761;SDS011;11203;50.870;20.682;2023-03-17T10:25:19;17.95;;;8.65;;
21761;SDS011;11203;50.870;20.682;2023-03-17T10:34:09;20.10;;;8.55;;
21761;SDS011;11203;50.870;20.682;2023-03-17T10:36:40;15.93;;;8.50;;
21761;SDS011;11203;50.870;20.682;2023-03-17T10:39:16;18.80;;;8.93;;
21761;SDS011;11203;50.870;20.682;2023-03-17T10:41:58;15.35;;;7.80;;
21761;SDS011;11203;50.870;20.682;2023-03-17T10:45:00;16.67;;;8.85;;
21761;SDS011;11203;50.870;20.682;2023-03-17T10:47:32;18.50;;;9.75;;
21761;SDS011;11203;50.870;20.682;2023-03-17T10:53:07;15.05;;;8.90;;
21761;SDS011;11203;50.870;20.682;2023-03-17T10:55:48;17.83;;;8.23;;
21761;SDS011;11203;50.870;20.682;2023-03-17T10:58:21;13.55;;;7.25;;
21761;SDS011;11203;50.870;20.682;2023-03-17T11:00:54;15.18;;;6.88;;
21761;SDS011;11203;50.870;20.682;2023-03-17T11:03:22;11.27;;;5.15;;
21761;SDS011;11203;50.870;20.682;2023-03-17T11:06:02;12.60;;;6.18;;
21761;SDS011;11203;50.870;20.682;2023-03-17T11:08:41;12.32;;;5.47;;
21761;SDS011;11203;50.870;20.682;2023-03-17T11:14:01;26.67;;;19.73;;
21761;SDS011;11203;50.870;20.682;2023-03-17T11:16:39;31.27;;;19.38;;
21761;SDS011;11203;50.870;20.682;2023-03-17T11:24:41;21.92;;;9.77;;
21761;SDS011;11203;50.870;20.682;2023-03-17T11:33:12;24.73;;;17.67;;
21761;SDS011;11203;50.870;20.682;2023-03-17T11:39:20;18.75;;;11.50;;
21761;SDS011;11203;50.870;20.682;2023-03-17T11:44:45;14.43;;;9.60;;
21761;SDS011;11203;50.870;20.682;2023-03-17T11:47:40;21.67;;;15.35;;
21761;SDS011;11203;50.870;20.682;2023-03-17T11:50:40;19.60;;;14.40;;
21761;SDS011;11203;50.870;20.682;2023-03-17T11:56:34;14.00;;;8.48;;
21761;SDS011;11203;50.870;20.682;2023-03-17T11:59:10;14.23;;;9.40;;
21761;SDS011;11203;50.870;20.682;2023-03-17T12:02:35;28.65;;;13.88;;
21761;SDS011;11203;50.870;20.682;2023-03-17T12:05:12;10.80;;;7.43;;
21761;SDS011;11203;50.870;20.682;2023-03-17T12:07:49;12.25;;;7.90;;
21761;SDS011;11203;50.870;20.682;2023-03-17T12:10:31;15.48;;;8.05;;
21761;SDS011;11203;50.870;20.682;2023-03-17T12:16:01;10.05;;;5.60;;
21761;SDS011;11203;50.870;20.682;2023-03-17T12:18:39;17.23;;;9.60;;
21761;SDS011;11203;50.870;20.682;2023-03-17T12:21:47;17.75;;;8.40;;
21761;SDS011;11203;50.870;20.682;2023-03-17T12:24:41;20.80;;;9.63;;
21761;SDS011;11203;50.870;20.682;2023-03-17T12:27:43;15.00;;;7.32;;
21761;SDS011;11203;50.870;20.682;2023-03-17T12:30:30;13.68;;;6.75;;
21761;SDS011;11203;50.870;20.682;2023-03-17T12:33:10;13.40;;;6.72;;
21761;SDS011;11203;50.870;20.682;2023-03-17T12:36:03;11.85;;;7.30;;
21761;SDS011;11203;50.870;20.682;2023-03-17T12:38:55;12.30;;;7.53;;
21761;SDS011;11203;50.870;20.682;2023-03-17T12:55:14;11.07;;;6.40;;
21761;SDS011;11203;50.870;20.682;2023-03-17T12:57:46;14.65;;;8.00;;
21761;SDS011;11203;50.870;20.682;2023-03-17T13:06:33;19.80;;;9.93;;
21761;SDS011;11203;50.870;20.682;2023-03-17T13:09:28;12.18;;;7.63;;
21761;SDS011;11203;50.870;20.682;2023-03-17T13:12:03;13.75;;;8.38;;
21761;SDS011;11203;50.870;20.682;2023-03-17T13:14:41;11.20;;;6.53;;
21761;SDS011;11203;50.870;20.682;2023-03-17T13:20:08;10.23;;;6.68;;
21761;SDS011;11203;50.870;20.682;2023-03-17T13:47:39;11.85;;;6.53;;
21761;SDS011;11203;50.870;20.682;2023-03-17T13:50:13;11.43;;;6.22;;
21761;SDS011;11203;50.870;20.682;2023-03-17T13:53:10;9.90;;;5.68;;
21761;SDS011;11203;50.870;20.682;2023-03-17T13:55:37;13.30;;;6.20;;
21761;SDS011;11203;50.870;20.682;2023-03-17T14:00:32;12.27;;;5.70;;
21761;SDS011;11203;50.870;20.682;2023-03-17T14:03:23;8.63;;;5.38;;
21761;SDS011;11203;50.870;20.682;2023-03-17T14:06:05;6.80;;;4.95;;
21761;SDS011;11203;50.870;20.682;2023-03-17T14:08:34;8.80;;;4.55;;
21761;SDS011;11203;50.870;20.682;2023-03-17T14:11:05;9.15;;;4.72;;
21761;SDS011;11203;50.870;20.682;2023-03-17T14:13:52;7.78;;;4.57;;
21761;SDS011;11203;50.870;20.682;2023-03-17T14:20:37;7.65;;;5.28;;
21761;SDS011;11203;50.870;20.682;2023-03-17T14:22:51;9.70;;;5.00;;
21761;SDS011;11203;50.870;20.682;2023-03-17T14:25:22;12.65;;;5.95;;
21761;SDS011;11203;50.870;20.682;2023-03-17T14:27:56;8.38;;;5.80;;
21761;SDS011;11203;50.870;20.682;2023-03-17T14:30:24;16.60;;;7.47;;
21761;SDS011;11203;50.870;20.682;2023-03-17T14:32:57;14.90;;;5.90;;
21761;SDS011;11203;50.870;20.682;2023-03-17T14:35:31;11.63;;;5.97;;
21761;SDS011;11203;50.870;20.682;2023-03-17T14:38:01;9.32;;;5.00;;
21761;SDS011;11203;50.870;20.682;2023-03-17T14:40:40;11.45;;;5.22;;
21761;SDS011;11203;50.870;20.682;2023-03-17T14:43:06;7.15;;;5.50;;
21761;SDS011;11203;50.870;20.682;2023-03-17T14:48:20;11.00;;;6.50;;
21761;SDS011;11203;50.870;20.682;2023-03-17T14:50:52;11.43;;;5.13;;
21761;SDS011;11203;50.870;20.682;2023-03-17T14:53:31;13.07;;;6.10;;
21761;SDS011;11203;50.870;20.682;2023-03-17T14:55:59;9.70;;;5.75;;
21761;SDS011;11203;50.870;20.682;2023-03-17T14:58:33;10.30;;;6.68;;
21761;SDS011;11203;50.870;20.682;2023-03-17T15:01:06;12.48;;;6.63;;
21761;SDS011;11203;50.870;20.682;2023-03-17T15:03:50;12.45;;;7.43;;
21761;SDS011;11203;50.870;20.682;2023-03-17T15:06:29;60.28;;;13.55;;
21761;SDS011;11203;50.870;20.682;2023-03-17T15:09:01;17.80;;;8.90;;
21761;SDS011;11203;50.870;20.682;2023-03-17T15:11:37;11.63;;;8.80;;
21761;SDS011;11203;50.870;20.682;2023-03-17T15:14:13;11.00;;;7.13;;
21761;SDS011;11203;50.870;20.682;2023-03-17T15:16:47;35.17;;;25.17;;
21761;SDS011;11203;50.870;20.682;2023-03-17T15:19:18;14.60;;;8.07;;
21761;SDS011;11203;50.870;20.682;2023-03-17T15:21:52;11.35;;;7.35;;
21761;SDS011;11203;50.870;20.682;2023-03-17T15:24:38;15.50;;;7.28;;
21761;SDS011;11203;50.870;20.682;2023-03-17T15:27:12;68.63;;;32.95;;
21761;SDS011;11203;50.870;20.682;2023-03-17T15:29:40;198.75;;;89.07;;
21761;SDS011;11203;50.870;20.682;2023-03-17T15:32:17;142.20;;;71.45;;
21761;SDS011;11203;50.870;20.682;2023-03-17T15:34:46;157.38;;;78.10;;
21761;SDS011;11203;50.870;20.682;2023-03-17T15:37:17;42.65;;;28.13;;
21761;SDS011;11203;50.870;20.682;2023-03-17T15:39:46;14.65;;;7.90;;
21761;SDS011;11203;50.870;20.682;2023-03-17T15:42:14;13.77;;;6.82;;
21761;SDS011;11203;50.870;20.682;2023-03-17T15:44:42;16.10;;;6.30;;
21761;SDS011;11203;50.870;20.682;2023-03-17T15:47:14;13.90;;;7.85;;
21761;SDS011;11203;50.870;20.682;2023-03-17T15:49:44;27.50;;;14.18;;
21761;SDS011;11203;50.870;20.682;2023-03-17T15:52:16;20.50;;;9.52;;
21761;SDS011;11203;50.870;20.682;2023-03-17T15:54:53;18.92;;;6.78;;
21761;SDS011;11203;50.870;20.682;2023-03-17T15:57:22;24.67;;;8.55;;
21761;SDS011;11203;50.870;20.682;2023-03-17T15:59:49;15.73;;;7.22;;
21761;SDS011;11203;50.870;20.682;2023-03-17T16:02:28;25.23;;;9.45;;
21761;SDS011;11203;50.870;20.682;2023-03-17T16:04:58;17.40;;;6.90;;
21761;SDS011;11203;50.870;20.682;2023-03-17T16:07:29;28.80;;;8.13;;
21761;SDS011;11203;50.870;20.682;2023-03-17T16:09:55;18.63;;;7.45;;
21761;SDS011;11203;50.870;20.682;2023-03-17T16:12:22;13.00;;;6.63;;
21761;SDS011;11203;50.870;20.682;2023-03-17T16:14:49;14.25;;;6.20;;
21761;SDS011;11203;50.870;20.682;2023-03-17T16:19:50;18.40;;;9.63;;
21761;SDS011;11203;50.870;20.682;2023-03-17T16:22:32;15.65;;;7.72;;
21761;SDS011;11203;50.870;20.682;2023-03-17T16:25:03;11.10;;;7.32;;
21761;SDS011;11203;50.870;20.682;2023-03-17T16:27:47;14.52;;;7.10;;